Time;durP1;ratioP1;P1;durP2;ratioP2;P2;SDS_P1;SDS_P2;PMS_P1;PMS_P2;Temp;Humidity;BMP_temperature;BMP_pressure;BME280_temperature;BME280_humidity;BME280_pressure;Samples;Min_cycle;Max_cycle;Signal;HPM_P1;HPM_P2
2024/04/14 00:06:52;;;;;;;;;;;18.80;50.70;;;;;;23030641;25;19927;-57
2024/04/14 00:16:53;;;;;;;;;;;19.00;48.00;;;;;;23031319;25;19966;-58
2024/04/14 00:26:54;;;;;;;;;;;19.00;47.60;;;;;;23029872;25;20002;-57
2024/04/14 00:36:55;;;;;;;;;;;18.90;49.60;;;;;;23029648;25;19933;-56
2024/04/14 00:46:57;;;;;;;;;;;18.70;51.10;;;;;;23028137;25;19934;-56
2024/04/14 00:56:59;;;;;;;;;;;18.60;51.80;;;;;;23029232;25;19934;-57
2024/04/14 01:07:02;;;;;;;;;;;18.60;52.10;;;;;;23026149;25;20281;-57
2024/04/14 01:17:05;;;;;;;;;;;18.40;53.30;;;;;;23024494;25;19934;-57
2024/04/14 01:27:06;;;;;;;;;;;18.30;53.70;;;;;;23023772;25;19935;-57
2024/04/14 01:37:08;;;;;;;;;;;18.20;54.10;;;;;;23031605;25;20337;-56
2024/04/14 01:47:09;;;;;;;;;;;18.00;54.90;;;;;;23038215;25;19935;-57
2024/04/14 01:57:10;;;;;;;;;;;17.80;55.20;;;;;;23037713;25;19935;-57
2024/04/14 02:07:11;;;;;;;;;;;17.50;55.00;;;;;;23036914;25;20348;-56
2024/04/14 02:17:14;;;;;;;;;;;17.20;55.80;;;;;;23037342;25;19958;-56
2024/04/14 02:27:15;;;;;;;;;;;16.90;56.50;;;;;;23038014;25;20283;-56
2024/04/14 02:37:16;;;;;;;;;;;16.70;56.80;;;;;;23037746;25;19927;-56
2024/04/14 02:47:17;;;;;;;;;;;16.60;57.90;;;;;;23035571;25;19934;-56
2024/04/14 02:57:18;;;;;;;;;;;16.50;58.30;;;;;;23035266;25;19927;-57
2024/04/14 03:07:19;;;;;;;;;;;16.40;58.40;;;;;;23035154;25;19934;-56
2024/04/14 03:17:25;;;;;;;;;;;16.30;58.40;;;;;;23032841;25;19978;-55
2024/04/14 03:27:26;;;;;;;;;;;16.10;58.70;;;;;;23032080;25;19934;-56
2024/04/14 03:37:28;;;;;;;;;;;16.10;58.60;;;;;;23031571;25;19935;-56
2024/04/14 03:47:29;;;;;;;;;;;16.00;58.80;;;;;;23030843;25;19935;-55
2024/04/14 03:57:33;;;;;;;;;;;15.70;59.30;;;;;;23030951;25;19927;-56
2024/04/14 04:07:35;;;;;;;;;;;15.50;59.90;;;;;;23030050;25;19935;-58
2024/04/14 04:17:36;;;;;;;;;;;15.50;59.80;;;;;;23031173;25;20345;-56
2024/04/14 04:27:37;;;;;;;;;;;15.60;59.20;;;;;;23029223;25;19938;-56
2024/04/14 04:37:38;;;;;;;;;;;15.70;58.80;;;;;;23028897;25;20245;-56
2024/04/14 04:47:39;;;;;;;;;;;15.60;58.90;;;;;;23027696;25;20248;-57
2024/04/14 04:57:40;;;;;;;;;;;15.60;58.70;;;;;;23026863;25;19927;-56
2024/04/14 05:07:41;;;;;;;;;;;15.70;58.50;;;;;;23026584;25;19933;-56
2024/04/14 05:17:42;;;;;;;;;;;15.70;58.30;;;;;;23040777;25;19931;-57
2024/04/14 05:27:43;;;;;;;;;;;15.70;58.60;;;;;;23040517;25;19933;-56
2024/04/14 05:37:45;;;;;;;;;;;15.50;59.00;;;;;;23041245;25;19926;-57
2024/04/14 05:47:46;;;;;;;;;;;15.40;59.20;;;;;;23040399;25;19926;-56
2024/04/14 05:57:47;;;;;;;;;;;15.40;59.20;;;;;;23039748;25;19934;-56
2024/04/14 06:07:48;;;;;;;;;;;15.40;59.40;;;;;;23037072;25;20264;-56
2024/04/14 06:17:49;;;;;;;;;;;15.20;59.50;;;;;;23038713;25;19995;-56
2024/04/14 06:27:51;;;;;;;;;;;15.10;59.40;;;;;;23036798;25;19927;-56
2024/04/14 06:37:51;;;;;;;;;;;15.00;59.40;;;;;;23036312;25;19934;-56
2024/04/14 06:47:53;;;;;;;;;;;15.10;59.40;;;;;;23035481;25;20348;-55
2024/04/14 06:57:56;;;;;;;;;;;15.20;59.00;;;;;;23034988;25;20038;-57
2024/04/14 07:07:57;;;;;;;;;;;15.60;58.20;;;;;;23035383;25;20267;-56
2024/04/14 07:17:58;;;;;;;;;;;16.00;57.10;;;;;;23033873;25;19927;-57
2024/04/14 07:27:59;;;;;;;;;;;16.60;55.70;;;;;;23033976;25;20293;-57
2024/04/14 07:38:00;;;;;;;;;;;17.10;54.30;;;;;;23031451;25;19934;-56
2024/04/14 07:48:01;;;;;;;;;;;17.50;53.10;;;;;;23031544;25;19927;-55
2024/04/14 07:58:02;;;;;;;;;;;17.70;52.20;;;;;;23034615;25;19931;-56
2024/04/14 08:08:04;;;;;;;;;;;18.10;52.00;;;;;;23029144;25;19939;-56
2024/04/14 08:18:05;;;;;;;;;;;18.30;50.60;;;;;;23030048;25;20002;-57
2024/04/14 08:28:08;;;;;;;;;;;18.40;49.90;;;;;;23026044;25;20228;-56
2024/04/14 08:38:09;;;;;;;;;;;18.70;49.20;;;;;;23027763;25;19930;-57
2024/04/14 08:48:11;;;;;;;;;;;19.20;47.50;;;;;;23024122;25;20356;-56
2024/04/14 08:58:14;;;;;;;;;;;19.60;45.20;;;;;;23025235;25;19994;-58
2024/04/14 09:08:15;;;;;;;;;;;19.80;43.50;;;;;;23023544;25;19927;-57
2024/04/14 09:18:16;;;;;;;;;;;20.10;40.70;;;;;;23024151;25;20321;-59
2024/04/14 09:28:18;;;;;;;;;;;20.30;38.40;;;;;;23024591;25;19927;-57
2024/04/14 09:38:19;;;;;;;;;;;20.70;36.60;;;;;;23023086;25;19963;-57
2024/04/14 09:48:22;;;;;;;;;;;20.90;34.40;;;;;;23022126;25;19927;-56
2024/04/14 09:58:23;;;;;;;;;;;20.90;33.50;;;;;;23030230;25;19931;-57
2024/04/14 10:08:26;;;;;;;;;;;21.00;33.10;;;;;;23035808;25;19994;-57
2024/04/14 10:18:37;;;;;;;;;;;21.10;32.60;;;;;;23035376;25;20340;-57
2024/04/14 10:28:47;;;;;;;;;;;21.20;32.90;;;;;;23035403;25;20002;-57
2024/04/14 10:38:48;;;;;;;;;;;21.30;33.10;;;;;;23035039;25;19927;-58
2024/04/14 10:48:49;;;;;;;;;;;21.50;32.60;;;;;;23033232;25;19934;-57
2024/04/14 10:58:51;;;;;;;;;;;21.60;32.40;;;;;;23032209;25;20280;-57
2024/04/14 11:08:53;;;;;;;;;;;21.90;31.90;;;;;;23032045;25;19994;-57
2024/04/14 11:18:55;;;;;;;;;;;22.00;31.70;;;;;;23033467;25;19941;-57
2024/04/14 11:28:56;;;;;;;;;;;22.20;31.70;;;;;;23032906;25;20367;-57
2024/04/14 11:38:57;;;;;;;;;;;22.20;31.10;;;;;;23033216;25;19927;-57
2024/04/14 11:48:59;;;;;;;;;;;22.70;30.30;;;;;;23031154;25;19927;-57
2024/04/14 11:59:00;;;;;;;;;;;22.70;29.40;;;;;;23029950;25;19926;-57
2024/04/14 12:09:01;;;;;;;;;;;22.90;29.30;;;;;;23029534;25;20437;-56
2024/04/14 12:19:03;;;;;;;;;;;22.90;29.30;;;;;;23027987;25;19931;-58
2024/04/14 12:29:04;;;;;;;;;;;;;;;;;;23028210;25;19933;-57
2024/04/14 12:39:06;;;;;;;;;;;;;;;;;;23027335;25;19934;-56
2024/04/14 12:49:09;;;;;;;;;;;;;;;;;;23025470;25;20253;-57
2024/04/14 12:59:11;;;;;;;;;;;;;;;;;;23025127;25;19998;-58
2024/04/14 13:09:12;;;;;;;;;;;25.00;28.10;;;;;;23023909;25;20441;-58
2024/04/14 13:19:13;;;;;;;;;;;24.10;29.80;;;;;;23025442;25;19934;-58
2024/04/14 13:29:14;;;;;;;;;;;24.20;29.60;;;;;;23024944;25;20260;-59
2024/04/14 13:39:15;;;;;;;;;;;24.50;29.20;;;;;;23040851;25;19927;-58
2024/04/14 13:49:16;;;;;;;;;;;24.30;28.90;;;;;;23038718;25;20285;-57
2024/04/14 13:59:17;;;;;;;;;;;24.50;29.40;;;;;;23038144;25;19955;-57
2024/04/14 14:09:18;;;;;;;;;;;24.70;28.00;;;;;;23036980;25;19952;-58
2024/04/14 14:19:20;;;;;;;;;;;24.70;28.20;;;;;;23035879;25;19934;-57
2024/04/14 14:29:23;;;;;;;;;;;24.80;28.50;;;;;;23034887;25;19994;-59
2024/04/14 14:39:24;;;;;;;;;;;25.00;27.80;;;;;;23036161;25;19931;-58
2024/04/14 14:49:25;;;;;;;;;;;25.00;28.30;;;;;;23033898;25;20550;-57
2024/04/14 14:59:26;;;;;;;;;;;25.10;28.20;;;;;;23000391;25;19999;-57
2024/04/14 15:09:27;;;;;;;;;;;26.20;27.20;;;;;;23034039;25;20372;-58
2024/04/14 15:19:33;;;;;;;;;;;25.50;28.40;;;;;;23033832;25;20340;-57
2024/04/14 15:29:34;;;;;;;;;;;25.40;29.00;;;;;;23031639;25;19933;-58
2024/04/14 15:39:35;;;;;;;;;;;25.30;29.20;;;;;;23032618;25;20494;-58
2024/04/14 15:49:36;;;;;;;;;;;25.50;28.50;;;;;;23031839;25;19927;-57
2024/04/14 15:59:38;;;;;;;;;;;25.40;28.20;;;;;;23029604;25;20079;-58
2024/04/14 16:09:39;;;;;;;;;;;25.30;29.20;;;;;;23029774;25;19927;-59
2024/04/14 16:19:40;;;;;;;;;;;25.40;28.20;;;;;;23028163;25;20110;-57
2024/04/14 16:29:42;;;;;;;;;;;25.30;28.40;;;;;;23026990;25;19927;-58
2024/04/14 16:39:44;;;;;;;;;;;25.10;28.90;;;;;;23028822;25;19959;-57
2024/04/14 16:49:47;;;;;;;;;;;25.20;29.10;;;;;;23026499;25;19942;-58
2024/04/14 16:59:48;;;;;;;;;;;25.40;29.20;;;;;;23025514;25;19927;-60
2024/04/14 17:09:49;;;;;;;;;;;25.20;30.00;;;;;;23035070;25;19958;-57
2024/04/14 17:19:51;;;;;;;;;;;25.20;30.30;;;;;;23040567;25;19926;-58
2024/04/14 17:29:52;;;;;;;;;;;25.10;31.00;;;;;;23040041;25;19971;-57
2024/04/14 17:39:54;;;;;;;;;;;25.10;30.80;;;;;;23040969;25;19939;-57
2024/04/14 17:49:55;;;;;;;;;;;25.00;30.10;;;;;;23039181;25;19995;-57
2024/04/14 17:59:56;;;;;;;;;;;24.90;30.10;;;;;;23038273;25;20352;-57
2024/04/14 18:09:57;;;;;;;;;;;24.70;30.80;;;;;;23038405;25;20305;-57
2024/04/14 18:19:58;;;;;;;;;;;24.60;30.70;;;;;;23037356;25;19935;-57
2024/04/14 18:29:59;;;;;;;;;;;24.20;32.10;;;;;;23036269;25;19935;-57
2024/04/14 18:40:02;;;;;;;;;;;24.10;33.80;;;;;;23036201;25;19934;-57
2024/04/14 18:50:03;;;;;;;;;;;23.90;34.00;;;;;;23034552;25;19931;-57
2024/04/14 19:00:06;;;;;;;;;;;23.70;34.30;;;;;;23034321;25;20026;-58
2024/04/14 19:10:07;;;;;;;;;;;23.40;34.90;;;;;;23032821;25;20364;-57
2024/04/14 19:20:09;;;;;;;;;;;23.30;34.90;;;;;;23032898;25;20348;-57
2024/04/14 19:30:10;;;;;;;;;;;23.10;35.30;;;;;;23030908;25;19935;-58
2024/04/14 19:40:13;;;;;;;;;;;23.00;35.80;;;;;;23032730;25;19951;-58
2024/04/14 19:50:14;;;;;;;;;;;22.80;36.20;;;;;;23032077;25;19939;-58
2024/04/14 20:00:15;;;;;;;;;;;22.70;36.50;;;;;;23030065;25;20343;-58
2024/04/14 20:10:17;;;;;;;;;;;22.60;37.20;;;;;;23030208;25;19927;-57
2024/04/14 20:20:18;;;;;;;;;;;22.40;37.40;;;;;;23031107;25;19934;-57
2024/04/14 20:30:19;;;;;;;;;;;22.30;37.70;;;;;;23028767;25;19935;-57
2024/04/14 20:40:20;;;;;;;;;;;22.10;37.90;;;;;;23028608;25;19975;-57
2024/04/14 20:50:21;;;;;;;;;;;22.00;38.20;;;;;;23027391;25;20356;-57
2024/04/14 21:00:22;;;;;;;;;;;21.90;38.70;;;;;;23026642;25;19998;-57
2024/04/14 21:10:24;;;;;;;;;;;21.70;39.40;;;;;;23024390;25;19927;-57
2024/04/14 21:20:25;;;;;;;;;;;21.60;39.70;;;;;;23025536;25;20345;-57
2024/04/14 21:30:26;;;;;;;;;;;21.50;40.50;;;;;;23023190;25;20253;-56
2024/04/14 21:40:27;;;;;;;;;;;21.30;41.10;;;;;;23022698;25;20344;-57
2024/04/14 21:50:30;;;;;;;;;;;21.10;41.80;;;;;;23023055;25;19935;-57
2024/04/14 22:00:31;;;;;;;;;;;21.00;42.40;;;;;;23037084;25;19934;-57
2024/04/14 22:10:33;;;;;;;;;;;20.90;42.50;;;;;;23038727;25;19994;-56
2024/04/14 22:20:34;;;;;;;;;;;20.70;42.80;;;;;;23037770;25;19927;-57
2024/04/14 22:30:36;;;;;;;;;;;20.70;43.30;;;;;;23037017;25;20315;-57
2024/04/14 22:40:37;;;;;;;;;;;20.60;44.10;;;;;;23035850;25;20216;-56
2024/04/14 22:50:38;;;;;;;;;;;20.40;43.80;;;;;;23036378;25;20331;-57
2024/04/14 23:00:39;;;;;;;;;;;20.40;44.20;;;;;;23035225;25;19937;-57
2024/04/14 23:10:41;;;;;;;;;;;20.20;44.70;;;;;;23032874;25;19931;-57
2024/04/14 23:20:42;;;;;;;;;;;20.20;44.20;;;;;;23033084;25;19937;-58
2024/04/14 23:30:43;;;;;;;;;;;20.20;44.30;;;;;;23035017;25;19927;-57
2024/04/14 23:40:44;;;;;;;;;;;20.10;44.70;;;;;;23032654;25;20020;-57
2024/04/14 23:50:47;;;;;;;;;;;20.00;46.10;;;;;;23031844;25;19927;-57
